createdAt,value
2019-02-08T00:01:05.141Z,4.72
2019-02-08T00:03:15.930Z,4.73
2019-02-08T00:05:26.769Z,4.77
2019-02-08T00:07:37.574Z,4.83
2019-02-08T00:09:48.493Z,4.83
2019-02-08T00:11:59.326Z,4.83
2019-02-08T00:14:10.142Z,4.82
2019-02-08T00:16:21.054Z,4.86
2019-02-08T00:18:31.964Z,4.89
2019-02-08T00:20:43.282Z,4.91
2019-02-08T00:22:54.192Z,4.92
2019-02-08T00:25:11.520Z,4.90
2019-02-08T00:27:22.308Z,4.87
2019-02-08T00:29:33.257Z,4.89
2019-02-08T00:31:44.159Z,4.89
2019-02-08T00:33:54.954Z,4.85
2019-02-08T00:36:05.770Z,4.84
2019-02-08T00:38:16.575Z,4.83
2019-02-08T00:40:27.542Z,4.83
2019-02-08T00:42:39.735Z,4.80
2019-02-08T00:44:50.522Z,4.82
2019-02-08T00:47:01.398Z,4.81
2019-02-08T00:49:12.222Z,4.80
2019-02-08T00:51:23.038Z,4.82
2019-02-08T00:53:33.961Z,4.82
2019-02-08T00:55:44.883Z,4.78
2019-02-08T00:57:55.786Z,4.78
2019-02-08T01:00:26.553Z,4.79
2019-02-08T01:03:19.010Z,4.77
2019-02-08T01:05:29.809Z,4.80
2019-02-08T01:07:40.733Z,4.83
2019-02-08T01:09:51.584Z,4.83
2019-02-08T01:12:44.043Z,4.83
2019-02-08T01:14:54.850Z,4.83
2019-02-08T01:17:05.661Z,4.88
2019-02-08T01:19:16.465Z,4.86
2019-02-08T01:21:27.287Z,4.86
2019-02-08T01:23:41.358Z,4.87
2019-02-08T01:25:50.782Z,4.84
2019-02-08T01:28:01.594Z,4.85
2019-02-08T01:30:54.041Z,4.87
2019-02-08T01:33:04.970Z,4.90
2019-02-08T01:35:57.450Z,4.95
2019-02-08T01:38:08.266Z,4.95
2019-02-08T01:40:38.931Z,4.91
2019-02-08T01:42:49.818Z,4.92
2019-02-08T01:45:00.651Z,4.88
2019-02-08T01:47:11.443Z,4.85
2019-02-08T01:49:35.730Z,4.85
2019-02-08T01:51:46.506Z,4.81
2019-02-08T01:53:57.427Z,4.78
2019-02-08T01:56:08.231Z,4.74
2019-02-08T01:58:19.045Z,4.72
2019-02-08T02:01:11.500Z,4.68
2019-02-08T02:03:22.418Z,4.70
2019-02-08T02:05:33.233Z,4.70
2019-02-08T02:07:44.221Z,4.68
2019-02-08T02:09:55.091Z,4.67
2019-02-08T02:12:05.855Z,4.69
2019-02-08T02:14:16.810Z,4.72
2019-02-08T02:16:27.580Z,4.73
2019-02-08T02:18:38.392Z,4.75
2019-02-08T02:20:49.284Z,4.72
2019-02-08T02:23:00.094Z,4.73
2019-02-08T02:25:52.560Z,4.75
2019-02-08T02:28:45.022Z,4.76
2019-02-08T02:30:55.848Z,4.70
2019-02-08T02:33:48.307Z,4.71
2019-02-08T02:35:59.228Z,4.69
2019-02-08T02:38:10.251Z,4.66
2019-02-08T02:40:21.272Z,4.66
2019-02-08T02:42:32.060Z,4.67
2019-02-08T02:44:42.886Z,4.67
2019-02-08T02:46:53.830Z,4.64
2019-02-08T02:49:04.642Z,4.67
2019-02-08T02:51:15.453Z,4.64
2019-02-08T02:53:26.247Z,4.61
2019-02-08T02:55:37.179Z,4.62
2019-02-08T02:57:48.178Z,4.61
2019-02-08T02:59:58.980Z,4.63
2019-02-08T03:02:09.799Z,4.65
2019-02-08T03:04:20.691Z,4.67
2019-02-08T03:06:31.508Z,4.67
2019-02-08T03:08:42.296Z,4.67
2019-02-08T03:10:53.127Z,4.63
2019-02-08T03:16:03.237Z,4.65
2019-02-08T03:18:14.035Z,4.71
2019-02-08T03:20:24.848Z,4.71
2019-02-08T03:22:35.785Z,4.71
2019-02-08T03:24:46.590Z,4.73
2019-02-08T03:26:57.400Z,4.76
2019-02-08T03:29:08.192Z,4.75
2019-02-08T03:31:19.124Z,4.78
2019-02-08T03:33:29.915Z,4.78
2019-02-08T03:35:40.826Z,4.78
2019-02-08T03:37:51.818Z,4.80
2019-02-08T03:40:44.259Z,4.83
2019-02-08T03:42:55.181Z,4.85
2019-02-08T03:45:47.635Z,4.85
2019-02-08T03:47:58.465Z,4.89
2019-02-08T03:50:50.915Z,4.95
2019-02-08T03:53:01.740Z,4.90
2019-02-08T03:55:32.423Z,4.95
2019-02-08T03:57:43.329Z,4.95
2019-02-08T03:59:54.139Z,4.99
2019-02-08T04:02:05.040Z,5.01
2019-02-08T04:04:15.984Z,5.04
2019-02-08T04:06:26.878Z,5.03
2019-02-08T04:08:37.794Z,5.06
2019-02-08T04:10:48.683Z,5.13
2019-02-08T04:12:59.496Z,5.17
2019-02-08T04:15:51.950Z,5.19
2019-02-08T04:18:44.418Z,5.20
2019-02-08T04:20:55.212Z,5.21
2019-02-08T04:23:06.058Z,5.20
2019-02-08T04:25:16.936Z,5.17
2019-02-08T04:27:27.743Z,5.15
2019-02-08T04:29:38.567Z,5.21
2019-02-08T04:31:49.356Z,5.24
2019-02-08T04:34:00.178Z,5.28
2019-02-08T04:36:10.978Z,5.27
2019-02-08T04:38:21.769Z,5.26
2019-02-08T04:40:32.583Z,5.26
2019-02-08T04:42:43.381Z,5.27
2019-02-08T04:44:54.202Z,5.27
2019-02-08T04:47:05.001Z,5.27
2019-02-08T04:49:15.838Z,5.28
2019-02-08T04:51:26.647Z,5.24
2019-02-08T04:53:37.445Z,5.24
2019-02-08T04:55:48.377Z,5.23
2019-02-08T04:57:59.158Z,5.22
2019-02-08T05:00:51.636Z,5.25
2019-02-08T05:03:44.059Z,5.27
2019-02-08T05:05:54.886Z,5.26
2019-02-08T05:08:05.780Z,5.21
2019-02-08T05:10:58.238Z,5.22
2019-02-08T05:13:09.040Z,5.23
2019-02-08T05:16:01.537Z,5.21
2019-02-08T05:18:12.332Z,5.17
2019-02-08T05:21:04.801Z,5.12
2019-02-08T05:23:15.692Z,5.14
2019-02-08T05:25:26.491Z,5.17
2019-02-08T05:27:37.322Z,5.19
2019-02-08T05:29:48.103Z,5.16
2019-02-08T05:31:59.048Z,5.14
2019-02-08T05:34:09.928Z,5.14
2019-02-08T05:36:20.799Z,5.10
2019-02-08T05:38:31.605Z,5.06
2019-02-08T05:40:42.532Z,5.10
2019-02-08T05:42:53.390Z,5.41
2019-02-08T05:45:45.864Z,5.38
2019-02-08T05:47:56.681Z,5.36
2019-02-08T05:50:49.160Z,5.27
2019-02-08T05:52:59.985Z,5.25
2019-02-08T05:55:52.451Z,5.18
2019-02-08T05:58:44.967Z,5.10
2019-02-08T06:03:28.199Z,4.99
2019-02-08T06:06:20.736Z,4.91
2019-02-08T06:08:31.503Z,4.81
2019-02-08T06:10:42.403Z,4.72
2019-02-08T06:12:53.433Z,4.66
2019-02-08T06:15:45.869Z,4.63
2019-02-08T06:17:56.779Z,4.58
2019-02-08T06:20:49.241Z,4.52
2019-02-08T06:23:00.101Z,4.43
2019-02-08T06:25:52.532Z,4.37
2019-02-08T06:28:44.992Z,4.32
2019-02-08T06:30:55.781Z,4.31
2019-02-08T06:33:06.800Z,4.24
2019-02-08T06:35:59.247Z,4.23
2019-02-08T06:38:10.166Z,4.23
2019-02-08T06:40:41.738Z,4.20
2019-02-08T06:42:52.853Z,4.19
2019-02-08T06:45:45.306Z,4.19
2019-02-08T06:47:56.134Z,4.21
2019-02-08T06:50:48.589Z,4.24
2019-02-08T06:52:59.409Z,4.25
2019-02-08T06:55:11.174Z,4.28
2019-02-08T07:02:34.156Z,4.28
2019-02-08T07:05:04.951Z,4.31
2019-02-08T07:07:35.620Z,4.32
2019-02-08T07:14:47.091Z,4.44
2019-02-08T07:19:50.185Z,4.45
2019-02-08T07:24:43.253Z,4.49
2019-02-08T07:27:13.946Z,4.51
2019-02-08T07:32:07.102Z,4.58
2019-02-08T07:34:59.575Z,4.58
2019-02-08T07:37:30.460Z,4.62
2019-02-08T07:40:22.934Z,4.62
2019-02-08T07:42:53.813Z,4.64
2019-02-08T07:45:46.291Z,4.70
2019-02-08T07:48:17.092Z,4.69
2019-02-08T07:50:47.815Z,4.76
2019-02-08T07:55:58.741Z,4.82
2019-02-08T07:58:29.530Z,4.84
2019-02-08T08:01:00.211Z,4.92
2019-02-08T08:03:31.128Z,5.01
2019-02-08T08:06:23.602Z,5.26
2019-02-08T08:15:51.371Z,7.32
2019-02-08T08:18:43.842Z,7.83
2019-02-08T08:21:36.286Z,8.21
2019-02-08T08:24:28.753Z,8.57
2019-02-08T08:27:21.218Z,8.78
2019-02-08T08:30:13.679Z,8.88
2019-02-08T08:33:06.148Z,9.16
2019-02-08T08:35:58.606Z,9.47
2019-02-08T08:38:54.075Z,9.70
2019-02-08T08:41:46.518Z,9.83
2019-02-08T08:44:37.085Z,9.92
2019-02-08T08:47:29.545Z,9.76
2019-02-08T08:50:22.053Z,9.75
2019-02-08T08:53:12.617Z,9.67
2019-02-08T08:56:03.174Z,9.69
2019-02-08T08:58:56.274Z,9.76
2019-02-08T09:01:51.717Z,9.71
2019-02-08T09:04:42.275Z,9.81
2019-02-08T09:07:32.803Z,10.06
2019-02-08T09:10:23.654Z,10.17
2019-02-08T09:13:15.059Z,10.23
2019-02-08T09:16:05.778Z,10.29
2019-02-08T09:18:56.326Z,10.39
2019-02-08T09:21:48.801Z,10.32
2019-02-08T09:24:41.275Z,10.40
2019-02-08T09:27:33.715Z,10.34
2019-02-08T09:30:24.283Z,10.35
2019-02-08T09:33:16.720Z,10.34
2019-02-08T09:35:49.314Z,10.51
2019-02-08T09:38:39.850Z,10.68
2019-02-08T09:41:35.335Z,10.67
2019-02-08T09:44:25.869Z,10.77
2019-02-08T09:47:16.420Z,10.66
2019-02-08T09:50:06.991Z,10.57
2019-02-08T09:52:57.561Z,10.45
2019-02-08T09:55:48.130Z,10.58
2019-02-08T09:58:40.566Z,10.58
2019-02-08T10:01:31.202Z,10.62
2019-02-08T10:04:21.729Z,10.40
2019-02-08T10:07:14.183Z,10.47
2019-02-08T10:10:04.718Z,10.46
2019-02-08T10:12:55.294Z,10.43
2019-02-08T10:15:45.846Z,10.55
2019-02-08T10:18:36.394Z,10.57
2019-02-08T10:21:26.941Z,10.56
2019-02-08T10:24:17.493Z,10.64
2019-02-08T10:27:09.935Z,10.63
2019-02-08T10:30:00.506Z,10.61
2019-02-08T10:32:52.545Z,10.72
2019-02-08T10:35:46.178Z,10.68
2019-02-08T10:38:40.266Z,10.72
2019-02-08T10:41:30.958Z,10.71
2019-02-08T10:47:08.067Z,10.78
2019-02-08T10:49:58.659Z,10.85
2019-02-08T10:52:49.212Z,10.92
2019-02-08T10:55:41.680Z,10.98
2019-02-08T10:58:34.160Z,10.99
2019-02-08T11:01:24.720Z,10.85
2019-02-08T11:04:15.288Z,10.92
2019-02-08T11:07:05.839Z,11.01
2019-02-08T11:09:56.427Z,11.02
2019-02-08T11:12:46.936Z,11.11
2019-02-08T11:15:38.107Z,11.26
2019-02-08T11:18:30.545Z,11.36
2019-02-08T11:20:41.362Z,11.41
2019-02-08T11:22:52.169Z,11.40
2019-02-08T11:25:44.623Z,11.45
2019-02-08T11:27:55.449Z,11.50
2019-02-08T11:30:47.928Z,11.45
2019-02-08T11:32:58.743Z,11.46
2019-02-08T11:35:09.798Z,11.13
2019-02-08T11:37:20.705Z,11.10
2019-02-08T11:39:31.535Z,11.12
2019-02-08T11:41:42.557Z,11.18
2019-02-08T11:43:53.371Z,11.31
2019-02-08T11:46:04.281Z,11.31
2019-02-08T11:48:15.219Z,11.27
2019-02-08T11:50:26.070Z,11.23
2019-02-08T11:52:37.021Z,11.15
2019-02-08T11:54:47.819Z,11.04
2019-02-08T11:56:58.812Z,10.76
2019-02-08T11:59:09.601Z,10.70
2019-02-08T12:01:20.414Z,10.66
2019-02-08T12:03:31.215Z,10.62
2019-02-08T12:05:42.113Z,10.53
2019-02-08T12:07:53.032Z,10.46
2019-02-08T12:10:45.477Z,10.37
2019-02-08T12:12:56.306Z,10.31
2019-02-08T12:15:48.765Z,10.27
2019-02-08T12:17:59.596Z,10.40
2019-02-08T12:20:10.529Z,10.80
2019-02-08T12:22:21.341Z,10.92
2019-02-08T12:24:32.139Z,10.91
2019-02-08T12:26:42.954Z,10.82
2019-02-08T12:28:53.998Z,10.84
2019-02-08T12:31:04.888Z,10.82
2019-02-08T12:33:15.715Z,10.84
2019-02-08T12:35:26.519Z,10.85
2019-02-08T12:37:37.357Z,10.78
2019-02-08T12:39:48.203Z,10.69
2019-02-08T12:41:59.027Z,10.57
2019-02-08T12:44:09.963Z,10.51
2019-02-08T12:46:20.764Z,10.51
2019-02-08T12:48:31.590Z,10.47
2019-02-08T12:50:42.514Z,10.49
2019-02-08T12:52:53.325Z,10.36
2019-02-08T12:55:45.853Z,10.35
2019-02-08T12:58:16.649Z,10.31
2019-02-08T13:00:27.562Z,10.22
2019-02-08T13:02:38.371Z,10.09
2019-02-08T13:04:49.212Z,10.07
2019-02-08T13:07:00.032Z,10.14
2019-02-08T13:09:52.519Z,10.11
2019-02-08T13:12:03.353Z,10.11
2019-02-08T13:14:14.185Z,10.11
2019-02-08T13:16:44.885Z,10.12
2019-02-08T13:18:55.679Z,10.12
2019-02-08T13:21:06.515Z,10.23
2019-02-08T13:23:17.334Z,10.26
2019-02-08T13:25:28.263Z,10.27
2019-02-08T13:27:39.243Z,10.28
2019-02-08T13:29:50.052Z,10.30
2019-02-08T13:32:00.891Z,10.35
2019-02-08T13:34:11.793Z,10.41
2019-02-08T13:36:22.605Z,10.43
2019-02-08T13:38:33.411Z,10.45
2019-02-08T13:40:44.458Z,10.46
2019-02-08T13:42:55.284Z,10.44
2019-02-08T13:45:47.753Z,10.46
2019-02-08T13:47:58.571Z,10.50
2019-02-08T13:52:55.593Z,10.50
2019-02-08T13:55:48.748Z,10.50
2019-02-08T13:57:59.609Z,10.53
2019-02-08T14:02:49.302Z,10.52
2019-02-08T14:05:00.196Z,10.58
2019-02-08T14:07:11.041Z,10.61
2019-02-08T14:09:21.836Z,10.65
2019-02-08T14:11:32.716Z,10.63
2019-02-08T14:13:43.494Z,10.57
2019-02-08T14:15:54.310Z,10.58
2019-02-08T14:18:05.311Z,10.53
2019-02-08T14:20:57.780Z,10.56
2019-02-08T14:23:08.576Z,10.52
2019-02-08T14:26:01.061Z,10.42
2019-02-08T14:28:11.908Z,10.35
2019-02-08T14:30:42.678Z,10.36
2019-02-08T14:32:53.525Z,10.41
2019-02-08T14:35:45.962Z,10.43
2019-02-08T14:38:38.422Z,10.37
2019-02-08T14:40:49.234Z,10.32
2019-02-08T14:43:00.348Z,10.39
2019-02-08T14:45:52.792Z,10.34
2019-02-08T14:48:03.734Z,10.30
2019-02-08T14:50:34.457Z,10.30
2019-02-08T14:53:27.775Z,10.28
2019-02-08T14:55:39.627Z,10.26
2019-02-08T14:58:32.099Z,10.29
2019-02-08T15:00:42.929Z,10.28
2019-02-08T15:02:53.775Z,10.29
2019-02-08T15:05:46.274Z,10.24
2019-02-08T15:07:57.760Z,10.22
2019-02-08T15:10:51.476Z,10.18
2019-02-08T15:13:02.537Z,10.16
2019-02-08T15:15:13.456Z,10.16
2019-02-08T15:17:24.266Z,10.16
2019-02-08T15:19:35.192Z,10.18
2019-02-08T15:21:46.042Z,10.13
2019-02-08T15:23:56.882Z,10.11
2019-02-08T15:26:07.788Z,10.10
2019-02-08T15:28:18.596Z,10.11
2019-02-08T15:31:11.096Z,10.06
2019-02-08T15:33:21.906Z,10.07
2019-02-08T15:35:33.035Z,10.04
2019-02-08T15:38:25.488Z,10.00
2019-02-08T15:40:56.331Z,9.98
2019-02-08T15:43:48.804Z,9.92
2019-02-08T15:45:59.810Z,9.92
2019-02-08T15:48:10.714Z,9.87
2019-02-08T15:50:21.776Z,9.85
2019-02-08T15:52:32.589Z,9.88
2019-02-08T15:54:43.506Z,9.88
2019-02-08T15:56:54.458Z,9.84
2019-02-08T15:59:05.285Z,9.82
2019-02-08T16:01:16.215Z,9.76
2019-02-08T16:03:27.005Z,9.73
2019-02-08T16:05:37.917Z,9.68
2019-02-08T16:07:48.767Z,9.61
2019-02-08T16:09:59.635Z,9.57
2019-02-08T16:12:10.459Z,9.55
2019-02-08T16:14:21.350Z,9.47
2019-02-08T16:16:32.269Z,9.38
2019-02-08T16:18:43.099Z,9.28
2019-02-08T16:20:53.951Z,9.18
2019-02-08T16:23:04.859Z,9.13
2019-02-08T16:25:57.349Z,9.09
2019-02-08T16:28:08.274Z,9.01
2019-02-08T16:31:00.770Z,8.94
2019-02-08T16:33:11.695Z,8.89
2019-02-08T16:36:04.167Z,8.80
2019-02-08T16:38:15.070Z,8.74
2019-02-08T16:41:07.554Z,8.67
2019-02-08T16:43:18.399Z,8.61
2019-02-08T16:45:49.086Z,8.53
2019-02-08T16:48:41.563Z,8.49
2019-02-08T16:50:52.516Z,8.41
2019-02-08T16:53:44.986Z,8.26
2019-02-08T16:55:55.787Z,8.11
2019-02-08T16:58:48.279Z,8.00
2019-02-08T17:00:59.208Z,7.93
2019-02-08T17:03:51.679Z,7.87
2019-02-08T17:06:24.266Z,7.70
2019-02-08T17:08:35.101Z,7.66
2019-02-08T17:10:45.915Z,7.54
2019-02-08T17:13:38.401Z,7.44
2019-02-08T17:15:49.213Z,7.43
2019-02-08T17:18:00.065Z,7.38
2019-02-08T17:20:31.935Z,7.35
2019-02-08T17:22:42.796Z,7.37
2019-02-08T17:24:53.596Z,7.34
2019-02-08T17:27:04.496Z,7.36
2019-02-08T17:29:15.355Z,7.38
2019-02-08T17:31:26.178Z,7.44
2019-02-08T17:33:37.000Z,7.50
2019-02-08T17:35:47.831Z,7.53
2019-02-08T17:37:58.713Z,7.56
2019-02-08T17:40:51.181Z,7.58
2019-02-08T17:43:43.677Z,7.61
2019-02-08T17:45:54.500Z,7.63
2019-02-08T17:48:46.973Z,7.61
2019-02-08T17:50:57.819Z,7.62
2019-02-08T17:53:08.645Z,7.64
2019-02-08T17:56:01.138Z,7.63
2019-02-08T17:58:11.949Z,7.61
2019-02-08T18:01:04.441Z,7.63
2019-02-08T18:03:15.367Z,7.62
2019-02-08T18:05:26.303Z,7.63
2019-02-08T18:07:37.433Z,7.62
2019-02-08T18:09:49.848Z,7.63
2019-02-08T18:12:00.687Z,7.59
2019-02-08T18:14:11.563Z,7.55
2019-02-08T18:16:22.398Z,7.55
2019-02-08T18:18:33.229Z,7.60
2019-02-08T18:21:03.932Z,7.63
2019-02-08T18:23:14.763Z,7.59
2019-02-08T18:25:25.685Z,7.57
2019-02-08T18:27:36.525Z,7.50
2019-02-08T18:29:47.459Z,7.54
2019-02-08T18:31:58.328Z,7.53
2019-02-08T18:34:09.136Z,7.49
2019-02-08T18:36:20.003Z,7.48
2019-02-08T18:38:30.794Z,7.40
2019-02-08T18:40:41.622Z,7.41
2019-02-08T18:42:52.632Z,7.34
2019-02-08T18:45:45.121Z,7.26
2019-02-08T18:47:56.057Z,7.24
2019-02-08T18:50:48.513Z,7.16
2019-02-08T18:52:59.361Z,7.10
2019-02-08T18:55:10.270Z,7.00
2019-02-08T18:57:21.151Z,6.91
2019-02-08T18:59:31.975Z,6.91
2019-02-08T19:01:42.922Z,7.00
2019-02-08T19:03:53.746Z,6.96
2019-02-08T19:06:04.552Z,7.00
2019-02-08T19:08:15.500Z,6.96
2019-02-08T19:10:26.331Z,6.98
2019-02-08T19:12:37.246Z,6.94
2019-02-08T19:14:48.055Z,6.89
2019-02-08T19:16:58.896Z,6.86
2019-02-08T19:19:09.758Z,6.87
2019-02-08T19:21:20.600Z,6.85
2019-02-08T19:23:31.487Z,6.83
2019-02-08T19:26:23.955Z,6.84
2019-02-08T19:28:34.778Z,6.81
2019-02-08T19:30:45.583Z,6.75
2019-02-08T19:32:56.440Z,6.74
2019-02-08T19:35:48.893Z,6.75
2019-02-08T19:37:59.724Z,6.74
2019-02-08T19:40:52.214Z,6.75
2019-02-08T19:43:44.688Z,6.74
2019-02-08T19:45:55.514Z,6.64
2019-02-08T19:48:47.998Z,6.63
2019-02-08T19:50:59.035Z,6.60
2019-02-08T19:53:10.036Z,6.61
2019-02-08T19:55:21.092Z,6.63
2019-02-08T19:57:31.913Z,6.66
2019-02-08T19:59:42.754Z,6.66
2019-02-08T20:01:53.590Z,6.60
2019-02-08T20:04:04.449Z,6.58
2019-02-08T20:06:15.382Z,6.53
2019-02-08T20:08:26.243Z,6.56
2019-02-08T20:11:18.719Z,6.58
2019-02-08T20:13:29.544Z,6.58
2019-02-08T20:15:40.358Z,6.58
2019-02-08T20:17:51.270Z,6.56
2019-02-08T20:20:43.762Z,6.52
2019-02-08T20:22:54.668Z,6.57
2019-02-08T20:25:47.149Z,6.59
2019-02-08T20:27:58.059Z,6.60
2019-02-08T20:30:50.821Z,6.57
2019-02-08T20:33:01.729Z,6.57
2019-02-08T20:35:54.196Z,6.56
2019-02-08T20:38:05.356Z,6.55
2019-02-08T20:40:57.813Z,6.53
2019-02-08T20:43:08.658Z,6.55
2019-02-08T20:46:01.144Z,6.50
2019-02-08T20:48:53.583Z,6.47
2019-02-08T20:51:04.547Z,6.47
2019-02-08T20:53:15.589Z,6.48
2019-02-08T20:56:08.100Z,6.47
2019-02-08T20:58:19.004Z,6.49
2019-02-08T21:01:11.481Z,6.51
2019-02-08T21:04:03.928Z,6.52
2019-02-08T21:06:14.785Z,6.50
2019-02-08T21:08:25.713Z,6.51
2019-02-08T21:10:36.625Z,6.51
2019-02-08T21:12:47.597Z,6.48
2019-02-08T21:14:58.411Z,6.47
2019-02-08T21:17:09.271Z,6.45
2019-02-08T21:19:20.100Z,6.44
2019-02-08T21:21:30.925Z,6.46
2019-02-08T21:23:41.748Z,6.46
2019-02-08T21:25:52.714Z,6.46
2019-02-08T21:28:46.146Z,6.48
2019-02-08T21:30:57.048Z,6.50
2019-02-08T21:33:49.541Z,6.52
2019-02-08T21:36:00.368Z,6.56
2019-02-08T21:38:11.331Z,6.55
2019-02-08T21:40:42.008Z,6.51
2019-02-08T21:43:34.590Z,6.51
2019-02-08T21:45:45.443Z,6.47
2019-02-08T21:47:56.386Z,6.45
2019-02-08T21:50:48.861Z,6.43
2019-02-08T21:52:59.921Z,6.39
2019-02-08T21:55:52.371Z,6.35
2019-02-08T21:58:44.874Z,6.31
2019-02-08T22:00:55.781Z,6.19
2019-02-08T22:03:48.267Z,6.17
2019-02-08T22:06:40.753Z,6.07
2019-02-08T22:08:51.573Z,6.03
2019-02-08T22:11:22.284Z,6.03
2019-02-08T22:13:33.127Z,6.03
2019-02-08T22:16:25.570Z,5.97
2019-02-08T22:18:36.442Z,5.95
2019-02-08T22:20:47.363Z,5.89
2019-02-08T22:22:58.278Z,5.88
2019-02-08T22:25:50.759Z,5.83
2019-02-08T22:28:01.601Z,5.81
2019-02-08T22:30:32.293Z,5.80
2019-02-08T22:33:24.759Z,5.74
2019-02-08T22:35:35.777Z,5.61
2019-02-08T22:37:46.677Z,5.48
2019-02-08T22:39:57.517Z,5.43
2019-02-08T22:42:08.338Z,5.37
2019-02-08T22:46:36.670Z,5.25
2019-02-08T22:48:47.470Z,5.21
2019-02-08T22:50:58.348Z,5.20
2019-02-08T22:53:09.367Z,5.19
2019-02-08T22:56:01.834Z,5.17
2019-02-08T22:58:12.647Z,5.18
2019-02-08T23:01:03.211Z,5.17
2019-02-08T23:03:55.666Z,5.14
2019-02-08T23:06:06.605Z,5.13
2019-02-08T23:08:17.418Z,5.08
2019-02-08T23:10:28.350Z,4.86
2019-02-08T23:12:39.167Z,4.62
2019-02-08T23:14:49.969Z,4.54
2019-02-08T23:17:00.889Z,4.50
2019-02-08T23:19:11.814Z,4.46
2019-02-08T23:21:22.722Z,4.48
2019-02-08T23:23:33.533Z,4.46
2019-02-08T23:25:44.346Z,4.40
2019-02-08T23:27:55.207Z,4.28
2019-02-08T23:30:25.842Z,4.18
2019-02-08T23:32:36.775Z,3.97
2019-02-08T23:34:47.590Z,3.84
2019-02-08T23:36:58.602Z,3.67
2019-02-08T23:39:51.068Z,3.67
2019-02-08T23:42:01.901Z,3.59
2019-02-08T23:44:12.794Z,3.54
2019-02-08T23:46:23.607Z,3.54
2019-02-08T23:48:34.513Z,3.57
2019-02-08T23:50:45.323Z,3.66
2019-02-08T23:52:56.191Z,3.67
2019-02-08T23:55:48.664Z,3.60
2019-02-08T23:57:59.492Z,3.59
